Time;durP1;ratioP1;P1;durP2;ratioP2;P2;SDS_P1;SDS_P2;PMS_P1;PMS_P2;Temp;Humidity;BMP_temperature;BMP_pressure;BME280_temperature;BME280_humidity;BME280_pressure;Samples;Min_cycle;Max_cycle;Signal;HPM_P1;HPM_P2
2024/02/20 00:02:05;;;;;;;42.10;10.40;;;7.60;99.90;;;;;;792216;177;27028;-79
2024/02/20 00:04:32;;;;;;;33.37;7.87;;;7.60;99.90;;;;;;781132;183;26473;-78
2024/02/20 00:06:59;;;;;;;29.63;7.47;;;7.60;99.90;;;;;;788726;179;27065;-77
2024/02/20 00:09:25;;;;;;;32.53;8.07;;;7.50;99.90;;;;;;787375;180;26457;-77
2024/02/20 00:11:53;;;;;;;36.27;7.80;;;7.50;99.90;;;;;;792791;180;26509;-78
2024/02/20 00:14:20;;;;;;;38.10;7.60;;;7.60;99.90;;;;;;780416;181;26474;-79
2024/02/20 00:16:47;;;;;;;25.37;6.83;;;7.60;99.90;;;;;;790053;177;26501;-78
2024/02/20 00:19:16;;;;;;;25.80;6.63;;;7.60;99.90;;;;;;789395;179;26476;-79
2024/02/20 00:21:44;;;;;;;31.67;6.60;;;7.50;99.90;;;;;;789878;181;26482;-77
2024/02/20 00:24:12;;;;;;;31.33;7.70;;;7.50;99.90;;;;;;790345;180;26984;-79
2024/02/20 00:26:39;;;;;;;27.37;6.70;;;7.50;99.90;;;;;;794206;180;26518;-80
2024/02/20 00:29:09;;;;;;;25.47;6.60;;;7.60;99.90;;;;;;786986;180;26459;-78
2024/02/20 00:31:37;;;;;;;28.63;6.97;;;7.60;99.90;;;;;;794585;180;26467;-77
2024/02/20 00:34:04;;;;;;;28.43;6.03;;;7.60;99.90;;;;;;777771;184;26477;-77
2024/02/20 00:36:31;;;;;;;36.80;7.57;;;7.60;99.90;;;;;;793368;181;26455;-78
2024/02/20 00:39:00;;;;;;;31.53;10.70;;;7.50;99.90;;;;;;790521;180;26485;-77
2024/02/20 00:41:28;;;;;;;32.27;7.43;;;7.60;99.90;;;;;;783353;181;26473;-78
2024/02/20 00:43:55;;;;;;;31.90;6.47;;;7.60;99.90;;;;;;787135;181;27081;-79
2024/02/20 00:46:23;;;;;;;27.80;6.37;;;7.70;99.90;;;;;;785827;179;26473;-78
2024/02/20 00:48:50;;;;;;;25.47;7.07;;;7.60;99.90;;;;;;789208;181;26593;-78
2024/02/20 00:51:18;;;;;;;27.17;6.63;;;7.60;99.90;;;;;;781072;181;26475;-79
2024/02/20 00:53:49;;;;;;;25.07;6.27;;;7.50;99.90;;;;;;787379;179;26473;-77
2024/02/20 00:56:16;;;;;;;25.47;6.07;;;7.50;99.90;;;;;;787286;181;26501;-78
2024/02/20 00:58:47;;;;;;;33.90;6.40;;;7.40;99.90;;;;;;783995;181;26464;-78
2024/02/20 01:01:17;;;;;;;27.60;6.03;;;7.40;99.90;;;;;;786827;179;26480;-78
2024/02/20 01:03:43;;;;;;;31.33;6.07;;;7.30;99.90;;;;;;792089;177;26493;-79
2024/02/20 01:06:12;;;;;;;32.47;6.70;;;7.30;99.90;;;;;;777433;184;26712;-79
2024/02/20 01:08:39;;;;;;;33.40;6.37;;;7.30;99.90;;;;;;788364;181;26544;-79
2024/02/20 01:11:08;;;;;;;24.27;6.03;;;7.30;99.90;;;;;;783393;183;26520;-79
2024/02/20 01:13:35;;;;;;;28.83;6.27;;;7.20;99.90;;;;;;785186;181;26522;-79
2024/02/20 01:16:02;;;;;;;22.53;6.10;;;7.30;99.90;;;;;;788870;181;26482;-79
2024/02/20 01:18:29;;;;;;;29.03;6.60;;;7.20;99.90;;;;;;788661;179;26437;-78
2024/02/20 01:20:56;;;;;;;31.50;5.73;;;7.10;99.90;;;;;;774942;184;26510;-78
2024/02/20 01:23:23;;;;;;;32.97;6.23;;;7.20;99.90;;;;;;797987;180;26462;-77
2024/02/20 01:25:50;;;;;;;30.20;5.33;;;7.20;99.90;;;;;;788563;180;26810;-79
2024/02/20 01:28:18;;;;;;;25.37;6.20;;;7.20;99.90;;;;;;783962;179;26455;-78
2024/02/20 01:30:46;;;;;;;34.23;6.47;;;7.20;99.90;;;;;;777151;183;26501;-77
2024/02/20 01:33:14;;;;;;;32.70;6.93;;;7.20;99.90;;;;;;787020;181;27051;-76
2024/02/20 01:35:43;;;;;;;26.53;6.40;;;7.30;99.90;;;;;;784733;181;27041;-78
2024/02/20 01:38:11;;;;;;;28.20;6.37;;;7.30;99.90;;;;;;785853;181;26510;-78
2024/02/20 01:40:38;;;;;;;27.03;5.57;;;7.40;99.90;;;;;;777914;181;26527;-80
2024/02/20 01:43:08;;;;;;;31.10;5.73;;;7.40;99.90;;;;;;792085;181;26513;-75
2024/02/20 01:45:35;;;;;;;26.23;6.60;;;7.50;99.90;;;;;;791134;180;26468;-79
2024/02/20 01:48:02;;;;;;;35.23;7.73;;;7.50;99.90;;;;;;793200;180;26480;-78
2024/02/20 01:50:33;;;;;;;29.43;6.60;;;7.50;99.90;;;;;;796106;179;26463;-78
2024/02/20 01:52:58;;;;;;;30.63;6.63;;;7.60;99.90;;;;;;792056;181;26456;-79
2024/02/20 01:55:26;;;;;;;20.93;6.10;;;7.60;99.90;;;;;;777647;181;26521;-76
2024/02/20 01:57:54;;;;;;;20.50;5.13;;;7.60;99.90;;;;;;775061;185;26533;-79
2024/02/20 02:00:20;;;;;;;28.73;6.53;;;7.60;99.90;;;;;;792349;180;26616;-77
2024/02/20 02:02:47;;;;;;;31.77;6.20;;;7.60;99.90;;;;;;785251;179;26456;-79
2024/02/20 02:05:15;;;;;;;25.47;5.70;;;7.60;99.90;;;;;;782801;181;26490;-79
2024/02/20 02:07:42;;;;;;;27.00;5.40;;;7.50;99.90;;;;;;788797;180;26474;-79
2024/02/20 02:10:10;;;;;;;34.27;6.77;;;7.50;99.90;;;;;;776659;185;26513;-78
2024/02/20 02:12:38;;;;;;;23.43;6.00;;;7.50;99.90;;;;;;787984;181;27074;-79
2024/02/20 02:15:06;;;;;;;31.00;6.90;;;7.50;99.90;;;;;;787211;180;26514;-78
2024/02/20 02:17:32;;;;;;;36.37;7.10;;;7.50;99.90;;;;;;788341;180;26452;-77
2024/02/20 02:20:05;;;;;;;30.50;5.93;;;7.50;99.90;;;;;;787850;181;26486;-78
2024/02/20 02:22:31;;;;;;;24.93;5.60;;;7.40;99.90;;;;;;785674;181;26486;-77
2024/02/20 02:25:00;;;;;;;30.07;6.53;;;7.40;99.90;;;;;;785677;180;26447;-78
2024/02/20 02:27:36;;;;;;;30.87;7.03;;;7.50;99.90;;;;;;788661;181;27036;-78
2024/02/20 02:30:07;;;;;;;33.20;6.30;;;7.40;99.90;;;;;;784174;180;26460;-79
2024/02/20 02:32:34;;;;;;;31.27;7.43;;;7.40;99.90;;;;;;784312;180;26658;-79
2024/02/20 02:35:04;;;;;;;21.83;6.07;;;7.50;99.90;;;;;;786931;181;26501;-80
2024/02/20 02:37:31;;;;;;;29.40;8.47;;;7.50;99.90;;;;;;783743;182;26517;-79
2024/02/20 02:39:57;;;;;;;34.93;8.23;;;7.50;99.90;;;;;;774252;184;26564;-79
2024/02/20 02:42:25;;;;;;;32.63;7.53;;;7.50;99.90;;;;;;792447;179;26472;-78
2024/02/20 02:44:55;;;;;;;26.67;7.07;;;7.50;99.90;;;;;;790026;180;27009;-78
2024/02/20 02:47:26;;;;;;;27.43;8.67;;;7.50;99.90;;;;;;791253;178;26460;-79
2024/02/20 02:49:55;;;;;;;27.70;7.53;;;7.50;99.90;;;;;;789145;180;26460;-78
2024/02/20 02:52:23;;;;;;;32.20;7.90;;;7.50;99.90;;;;;;794712;179;26462;-78
2024/02/20 02:54:51;;;;;;;27.80;7.33;;;7.40;99.90;;;;;;786826;176;26542;-79
2024/02/20 02:57:19;;;;;;;37.17;9.30;;;7.40;99.90;;;;;;791822;181;26502;-77
2024/02/20 02:59:48;;;;;;;37.70;8.57;;;7.40;99.90;;;;;;793964;180;26491;-76
2024/02/20 03:02:21;;;;;;;33.23;8.67;;;7.30;99.90;;;;;;789230;181;27088;-78
2024/02/20 03:04:46;;;;;;;30.50;9.10;;;7.30;99.90;;;;;;776220;183;26516;-79
2024/02/20 03:07:13;;;;;;;37.13;9.10;;;7.30;99.90;;;;;;787165;179;26442;-77
2024/02/20 03:09:43;;;;;;;36.57;9.33;;;7.30;99.90;;;;;;783249;181;26449;-77
2024/02/20 03:12:10;;;;;;;31.07;8.90;;;7.30;99.90;;;;;;788678;181;28116;-79
2024/02/20 03:14:39;;;;;;;36.97;10.27;;;7.40;99.90;;;;;;789487;179;27034;-78
2024/02/20 03:17:08;;;;;;;32.80;8.80;;;7.40;99.90;;;;;;775073;184;26471;-77
2024/02/20 03:19:38;;;;;;;28.77;8.27;;;7.40;99.90;;;;;;786984;181;26497;-77
2024/02/20 03:22:10;;;;;;;36.13;10.13;;;7.50;99.90;;;;;;777218;179;26511;-78
2024/02/20 03:24:38;;;;;;;32.63;8.87;;;7.50;99.90;;;;;;788676;180;26463;-78
2024/02/20 03:27:06;;;;;;;28.10;9.43;;;7.50;99.90;;;;;;785765;181;26448;-79
2024/02/20 03:29:36;;;;;;;39.63;9.20;;;7.50;99.90;;;;;;783343;179;26463;-78
2024/02/20 03:32:04;;;;;;;33.90;9.00;;;7.50;99.90;;;;;;787399;181;26522;-78
2024/02/20 03:34:36;;;;;;;31.80;9.40;;;7.50;99.90;;;;;;786529;181;26451;-79
2024/02/20 03:37:05;;;;;;;33.77;9.10;;;7.60;99.90;;;;;;791827;180;26983;-76
2024/02/20 03:39:41;;;;;;;34.43;10.43;;;7.60;99.90;;;;;;793595;177;26454;-79
2024/02/20 03:42:09;;;;;;;36.43;10.80;;;7.50;99.90;;;;;;792618;180;26471;-79
2024/02/20 03:44:47;;;;;;;37.63;11.07;;;7.50;99.90;;;;;;794178;179;26459;-80
2024/02/20 03:47:15;;;;;;;37.90;10.40;;;7.50;99.90;;;;;;791838;177;26507;-79
2024/02/20 03:49:50;;;;;;;40.73;10.83;;;7.40;99.90;;;;;;777610;184;26644;-78
2024/02/20 03:52:21;;;;;;;35.53;10.17;;;7.40;99.90;;;;;;792446;180;26472;-78
2024/02/20 03:54:51;;;;;;;42.10;10.10;;;7.30;99.90;;;;;;795974;179;26450;-78
2024/02/20 03:57:21;;;;;;;38.17;10.90;;;7.30;99.90;;;;;;795667;179;26467;-79
2024/02/20 03:59:53;;;;;;;39.77;10.93;;;7.30;99.90;;;;;;780944;181;26455;-78
2024/02/20 04:02:22;;;;;;;39.20;11.77;;;7.30;99.90;;;;;;778370;180;27122;-78
2024/02/20 04:04:57;;;;;;;38.40;12.10;;;7.30;99.90;;;;;;790127;180;26464;-77
2024/02/20 04:07:24;;;;;;;36.73;11.00;;;7.30;99.90;;;;;;784270;180;27045;-79
2024/02/20 04:09:52;;;;;;;32.73;10.97;;;7.30;99.90;;;;;;784742;180;26456;-77
2024/02/20 04:12:20;;;;;;;36.10;10.73;;;7.30;99.90;;;;;;786866;180;26528;-77
2024/02/20 04:14:50;;;;;;;36.53;10.50;;;7.40;99.90;;;;;;785367;178;26456;-78
2024/02/20 04:17:23;;;;;;;34.83;11.87;;;7.30;99.90;;;;;;784649;181;26518;-78
2024/02/20 04:19:53;;;;;;;31.33;11.07;;;7.40;99.90;;;;;;777035;180;26600;-78
2024/02/20 04:22:26;;;;;;;40.60;11.33;;;7.40;99.90;;;;;;774606;184;26550;-77
2024/02/20 04:24:53;;;;;;;35.37;11.40;;;7.40;99.90;;;;;;784635;181;27045;-78
2024/02/20 04:27:32;;;;;;;38.53;11.20;;;7.50;99.90;;;;;;786280;181;27094;-78
2024/02/20 04:30:10;;;;;;;31.70;11.23;;;7.50;99.90;;;;;;790775;180;26655;-79
2024/02/20 04:32:46;;;;;;;44.77;12.50;;;7.50;99.90;;;;;;785655;180;26638;-78
2024/02/20 04:35:16;;;;;;;30.63;11.13;;;7.50;99.90;;;;;;788381;179;26479;-78
2024/02/20 04:37:47;;;;;;;40.93;12.03;;;7.40;99.90;;;;;;790604;181;26465;-79
2024/02/20 04:40:16;;;;;;;43.47;12.17;;;7.40;99.90;;;;;;784221;180;26450;-76
2024/02/20 04:42:46;;;;;;;39.80;11.57;;;7.40;99.90;;;;;;784731;181;26485;-78
2024/02/20 04:45:12;;;;;;;31.77;10.93;;;7.40;99.90;;;;;;780326;181;26448;-78
2024/02/20 04:47:41;;;;;;;35.73;12.23;;;7.50;99.90;;;;;;780828;181;27044;-78
2024/02/20 04:50:13;;;;;;;35.83;12.73;;;7.50;99.90;;;;;;787204;181;26450;-77
2024/02/20 04:52:39;;;;;;;33.47;11.73;;;7.40;99.90;;;;;;788454;172;27025;-77
2024/02/20 04:55:06;;;;;;;42.97;13.37;;;7.50;99.90;;;;;;776694;184;26496;-79
2024/02/20 04:57:32;;;;;;;36.10;12.93;;;7.50;99.90;;;;;;786865;181;26513;-79
2024/02/20 04:59:59;;;;;;;32.70;12.90;;;7.40;99.90;;;;;;789447;180;27018;-78
2024/02/20 05:02:26;;;;;;;41.10;13.70;;;7.40;99.90;;;;;;795041;180;26472;-79
2024/02/20 05:04:52;;;;;;;40.40;15.07;;;7.30;99.90;;;;;;804179;176;26493;-79
2024/02/20 05:07:19;;;;;;;37.20;12.97;;;7.20;99.90;;;;;;800052;178;27000;-80
2024/02/20 05:09:45;;;;;;;32.07;12.70;;;7.20;99.90;;;;;;798270;176;26431;-79
2024/02/20 05:12:12;;;;;;;41.43;14.73;;;7.20;99.90;;;;;;806140;178;26509;-77
2024/02/20 05:14:39;;;;;;;32.23;13.47;;;7.10;99.90;;;;;;800213;178;26462;-79
2024/02/20 05:17:05;;;;;;;40.30;13.37;;;7.10;99.90;;;;;;796450;178;26452;-79
2024/02/20 05:19:32;;;;;;;47.30;13.80;;;7.10;99.90;;;;;;803209;178;26478;-78
2024/02/20 05:21:58;;;;;;;27.87;12.63;;;7.10;99.90;;;;;;800482;178;26452;-79
2024/02/20 05:24:25;;;;;;;38.00;14.87;;;7.10;99.90;;;;;;798146;178;26528;-78
2024/02/20 05:26:52;;;;;;;40.70;15.07;;;7.10;99.90;;;;;;803398;178;26450;-78
2024/02/20 05:29:18;;;;;;;41.27;13.90;;;7.20;99.90;;;;;;803460;177;26459;-78
2024/02/20 05:31:45;;;;;;;38.67;14.00;;;7.20;99.90;;;;;;799548;178;26432;-80
2024/02/20 05:34:11;;;;;;;36.93;14.03;;;7.20;99.90;;;;;;802671;178;26437;-78
2024/02/20 05:36:38;;;;;;;41.33;12.87;;;7.20;99.90;;;;;;803762;178;26434;-78
2024/02/20 05:39:07;;;;;;;35.93;13.60;;;7.10;99.90;;;;;;803451;178;26426;-78
2024/02/20 05:41:31;;;;;;;40.00;15.60;;;7.10;99.90;;;;;;801373;177;26437;-78
2024/02/20 05:43:59;;;;;;;42.80;16.17;;;7.00;99.90;;;;;;803575;178;26457;-78
2024/02/20 05:46:27;;;;;;;47.93;15.13;;;7.00;99.90;;;;;;801312;178;26470;-79
2024/02/20 05:48:53;;;;;;;41.93;14.83;;;7.00;99.90;;;;;;803824;178;26990;-78
2024/02/20 05:51:20;;;;;;;34.93;14.17;;;7.00;99.90;;;;;;795463;178;26427;-79
2024/02/20 05:53:47;;;;;;;42.13;14.33;;;7.00;99.90;;;;;;795555;178;26489;-79
2024/02/20 05:56:14;;;;;;;38.37;14.27;;;7.00;99.90;;;;;;800017;178;26482;-77
2024/02/20 05:58:41;;;;;;;36.93;14.30;;;7.00;99.90;;;;;;801415;178;26427;-78
2024/02/20 06:01:08;;;;;;;45.40;14.97;;;7.10;99.90;;;;;;801286;178;26971;-78
2024/02/20 06:03:33;;;;;;;40.03;14.50;;;7.10;99.90;;;;;;800412;178;26457;-79
2024/02/20 06:06:00;;;;;;;37.80;14.83;;;7.10;99.90;;;;;;799593;178;26486;-78
2024/02/20 06:08:26;;;;;;;42.13;15.37;;;7.10;99.90;;;;;;794777;178;27026;-78
2024/02/20 06:10:53;;;;;;;40.33;15.17;;;7.10;99.90;;;;;;801586;178;26443;-79
2024/02/20 06:13:19;;;;;;;39.00;15.13;;;7.20;99.90;;;;;;798208;177;27084;-79
2024/02/20 06:15:46;;;;;;;44.43;15.23;;;7.20;99.90;;;;;;799476;178;26485;-78
2024/02/20 06:18:13;;;;;;;45.83;15.67;;;7.10;99.90;;;;;;802213;176;26430;-78
2024/02/20 06:20:41;;;;;;;39.30;15.23;;;7.10;99.90;;;;;;805577;178;27009;-77
2024/02/20 06:23:06;;;;;;;40.67;16.13;;;7.10;99.90;;;;;;802472;178;26471;-79
2024/02/20 06:25:32;;;;;;;42.83;15.63;;;7.20;99.90;;;;;;800279;178;26470;-79
2024/02/20 06:27:59;;;;;;;41.43;16.07;;;7.20;99.90;;;;;;802239;178;26476;-79
2024/02/20 06:30:26;;;;;;;36.97;15.80;;;7.20;99.90;;;;;;802563;178;26440;-79
2024/02/20 06:32:52;;;;;;;43.23;15.83;;;7.20;99.90;;;;;;800646;178;27818;-78
2024/02/20 06:35:19;;;;;;;41.27;15.07;;;7.20;99.90;;;;;;803213;178;26464;-81
2024/02/20 06:37:45;;;;;;;47.60;16.70;;;7.20;99.90;;;;;;798700;179;27060;-80
2024/02/20 06:40:12;;;;;;;36.47;14.63;;;7.20;99.90;;;;;;776576;183;26472;-79
2024/02/20 06:42:39;;;;;;;42.93;14.20;;;7.20;99.90;;;;;;781834;183;26489;-78
2024/02/20 06:45:06;;;;;;;39.60;15.03;;;7.20;99.90;;;;;;810946;176;26456;-78
2024/02/20 06:47:32;;;;;;;38.30;15.37;;;7.20;99.90;;;;;;790907;180;27040;-78
2024/02/20 06:49:59;;;;;;;34.00;13.67;;;7.20;99.90;;;;;;793288;180;26467;-78
2024/02/20 06:52:25;;;;;;;35.03;13.83;;;7.20;99.90;;;;;;796713;180;27099;-80
2024/02/20 06:54:52;;;;;;;46.23;15.37;;;7.20;99.90;;;;;;791544;180;26477;-79
2024/02/20 06:57:19;;;;;;;39.90;15.90;;;7.20;99.90;;;;;;805118;177;26446;-79
2024/02/20 06:59:45;;;;;;;42.13;13.73;;;7.30;99.90;;;;;;804222;174;26509;-78
2024/02/20 07:02:12;;;;;;;33.83;13.80;;;7.30;99.90;;;;;;807707;177;26591;-77
2024/02/20 07:04:38;;;;;;;42.33;14.73;;;7.30;99.90;;;;;;811077;177;26999;-78
2024/02/20 07:07:05;;;;;;;36.57;12.97;;;7.30;99.90;;;;;;808756;177;26462;-78
2024/02/20 07:09:32;;;;;;;33.90;12.80;;;7.40;99.90;;;;;;807450;178;26446;-77
2024/02/20 07:11:58;;;;;;;38.30;12.60;;;7.50;99.90;;;;;;803067;178;26506;-78
2024/02/20 07:14:25;;;;;;;33.17;13.57;;;7.60;99.90;;;;;;804333;177;26510;-78
2024/02/20 07:16:52;;;;;;;38.47;13.67;;;7.60;99.90;;;;;;807264;176;26456;-77
2024/02/20 07:19:21;;;;;;;45.57;13.90;;;7.70;99.90;;;;;;804288;178;26455;-76
2024/02/20 07:21:45;;;;;;;39.50;13.23;;;7.70;99.90;;;;;;779556;181;27069;-78
2024/02/20 07:24:11;;;;;;;37.53;12.80;;;7.70;99.90;;;;;;777264;184;26575;-77
2024/02/20 07:26:39;;;;;;;32.97;13.43;;;7.70;99.90;;;;;;777168;184;27111;-77
2024/02/20 07:29:05;;;;;;;36.50;13.43;;;7.80;99.90;;;;;;801813;176;26619;-76
2024/02/20 07:31:32;;;;;;;37.70;12.70;;;7.80;99.90;;;;;;801212;177;26597;-78
2024/02/20 07:33:59;;;;;;;33.87;12.07;;;7.80;99.90;;;;;;799407;178;26546;-77
2024/02/20 07:36:26;;;;;;;37.30;11.87;;;7.90;99.90;;;;;;799303;178;26473;-78
2024/02/20 07:38:53;;;;;;;33.23;13.07;;;7.90;99.90;;;;;;799227;177;27480;-78
2024/02/20 07:41:19;;;;;;;41.13;13.83;;;7.90;99.90;;;;;;799146;178;26505;-78
2024/02/20 07:43:46;;;;;;;36.63;13.20;;;7.90;99.90;;;;;;798832;178;28172;-77
2024/02/20 07:46:14;;;;;;;35.47;13.07;;;8.00;99.90;;;;;;798761;178;26515;-78
2024/02/20 07:48:42;;;;;;;38.23;13.43;;;8.10;99.90;;;;;;798581;178;26493;-78
2024/02/20 07:51:08;;;;;;;33.37;12.43;;;8.10;99.90;;;;;;798585;178;26479;-79
2024/02/20 07:53:34;;;;;;;40.67;12.40;;;8.10;99.90;;;;;;798338;178;26907;-79
2024/02/20 07:56:05;;;;;;;37.13;14.03;;;8.20;99.90;;;;;;798941;178;27448;-78
2024/02/20 07:58:28;;;;;;;30.33;13.37;;;8.30;99.90;;;;;;798213;178;26475;-78
2024/02/20 08:00:54;;;;;;;34.90;14.30;;;8.30;99.90;;;;;;802359;175;26430;-77
2024/02/20 08:03:23;;;;;;;32.10;13.70;;;8.30;99.90;;;;;;800837;177;27021;-78
2024/02/20 08:05:47;;;;;;;32.67;13.93;;;8.30;99.90;;;;;;803394;178;26454;-78
2024/02/20 08:08:14;;;;;;;36.77;13.57;;;8.30;99.90;;;;;;801729;178;26490;-79
2024/02/20 08:10:40;;;;;;;40.17;16.43;;;8.40;99.90;;;;;;802791;178;26426;-78
2024/02/20 08:13:07;;;;;;;31.20;14.83;;;8.40;99.90;;;;;;796558;179;26483;-77
2024/02/20 08:15:33;;;;;;;35.10;14.27;;;8.40;99.90;;;;;;802185;178;26956;-78
2024/02/20 08:18:00;;;;;;;41.67;16.53;;;8.40;99.90;;;;;;799475;177;26476;-77
2024/02/20 08:20:27;;;;;;;33.33;14.50;;;8.40;99.90;;;;;;799114;177;26455;-79
2024/02/20 08:22:54;;;;;;;38.70;15.53;;;8.50;99.90;;;;;;802091;178;27007;-78
2024/02/20 08:25:21;;;;;;;47.00;16.20;;;8.40;99.90;;;;;;803818;177;26429;-78
2024/02/20 08:27:47;;;;;;;35.57;14.10;;;8.50;99.90;;;;;;801136;178;26974;-79
2024/02/20 08:30:14;;;;;;;42.37;15.60;;;8.50;99.90;;;;;;803933;178;26430;-79
2024/02/20 08:32:44;;;;;;;39.13;14.70;;;8.60;99.90;;;;;;800029;177;26448;-77
2024/02/20 08:35:08;;;;;;;50.77;16.23;;;8.70;99.90;;;;;;803314;178;26646;-79
2024/02/20 08:37:34;;;;;;;48.30;15.57;;;8.90;99.90;;;;;;796274;178;26424;-78
2024/02/20 08:40:02;;;;;;;30.87;14.60;;;9.00;99.90;;;;;;801052;176;26473;-78
2024/02/20 08:42:27;;;;;;;37.03;15.10;;;9.20;99.90;;;;;;800509;178;27031;-80
2024/02/20 08:44:54;;;;;;;41.47;14.27;;;9.30;99.90;;;;;;805448;178;26666;-79
2024/02/20 08:47:21;;;;;;;37.20;15.17;;;9.30;99.90;;;;;;806264;177;26421;-80
2024/02/20 08:49:49;;;;;;;38.40;14.83;;;9.20;99.90;;;;;;804054;178;26453;-78
2024/02/20 08:52:15;;;;;;;33.37;15.00;;;9.20;99.90;;;;;;801301;178;26425;-79
2024/02/20 08:54:42;;;;;;;39.20;14.13;;;9.30;99.90;;;;;;803235;178;26430;-77
2024/02/20 08:57:08;;;;;;;31.73;13.57;;;9.20;99.90;;;;;;800109;178;27026;-77
2024/02/20 08:59:35;;;;;;;33.10;12.83;;;9.20;99.90;;;;;;803717;179;26434;-77
2024/02/20 09:02:03;;;;;;;39.40;14.40;;;9.20;99.90;;;;;;802015;178;28100;-79
2024/02/20 09:04:28;;;;;;;32.57;13.80;;;9.40;99.90;;;;;;799927;178;26430;-77
2024/02/20 09:06:55;;;;;;;29.87;12.53;;;9.50;99.90;;;;;;804356;178;26588;-77
2024/02/20 09:09:22;;;;;;;30.97;13.03;;;9.50;99.90;;;;;;803636;178;26425;-78
2024/02/20 09:11:49;;;;;;;27.13;12.03;;;9.70;99.90;;;;;;808105;178;26622;-78
2024/02/20 09:14:14;;;;;;;34.43;13.20;;;9.80;99.90;;;;;;782291;183;26463;-79
2024/02/20 09:16:41;;;;;;;33.03;13.57;;;9.90;99.90;;;;;;808328;177;26428;-77
2024/02/20 09:19:08;;;;;;;38.83;15.00;;;10.10;99.90;;;;;;804922;178;26457;-80
2024/02/20 09:21:34;;;;;;;47.93;22.93;;;10.30;99.90;;;;;;805887;175;26446;-79
2024/02/20 09:24:01;;;;;;;64.63;35.80;;;10.20;99.90;;;;;;777397;181;26476;-79
2024/02/20 09:26:27;;;;;;;43.93;23.40;;;10.30;99.90;;;;;;787677;181;28122;-79
2024/02/20 09:28:54;;;;;;;36.50;17.10;;;10.20;99.90;;;;;;780684;183;26457;-79
2024/02/20 09:31:20;;;;;;;39.03;13.50;;;10.20;99.90;;;;;;804669;176;26450;-79
2024/02/20 09:33:47;;;;;;;33.80;12.57;;;10.30;99.90;;;;;;806674;178;26466;-79
2024/02/20 09:36:14;;;;;;;34.20;13.13;;;10.50;99.90;;;;;;791080;181;26469;-80
2024/02/20 09:38:40;;;;;;;31.37;13.00;;;10.50;99.90;;;;;;794811;181;28081;-80
2024/02/20 09:41:07;;;;;;;30.13;12.87;;;10.20;99.90;;;;;;805769;176;26444;-80
2024/02/20 09:43:35;;;;;;;30.50;13.43;;;10.20;99.90;;;;;;805380;177;27000;-79
2024/02/20 09:46:02;;;;;;;33.27;13.33;;;10.20;99.90;;;;;;800352;175;26608;-79
2024/02/20 09:48:28;;;;;;;29.87;11.93;;;10.20;99.90;;;;;;796561;178;26465;-79
2024/02/20 09:50:55;;;;;;;29.47;11.17;;;10.20;99.90;;;;;;799815;176;26443;-80
2024/02/20 09:53:21;;;;;;;34.13;12.00;;;10.30;99.90;;;;;;807894;177;26432;-79
2024/02/20 09:55:48;;;;;;;29.63;11.70;;;10.40;99.90;;;;;;806975;177;26463;-79
2024/02/20 09:58:14;;;;;;;28.87;11.03;;;10.60;99.90;;;;;;797415;178;26412;-80
2024/02/20 10:00:44;;;;;;;29.90;11.60;;;10.70;99.90;;;;;;802669;178;26449;-79
2024/02/20 10:03:11;;;;;;;57.80;28.37;;;10.90;99.90;;;;;;802674;179;26458;-79
2024/02/20 10:05:37;;;;;;;58.77;26.03;;;10.80;99.90;;;;;;806464;177;26442;-82
2024/02/20 10:08:04;;;;;;;48.53;23.00;;;10.80;99.90;;;;;;791757;181;26493;-81
2024/02/20 10:10:31;;;;;;;38.90;16.27;;;10.90;99.90;;;;;;804904;175;26423;-81
2024/02/20 10:12:58;;;;;;;61.43;25.40;;;10.80;99.90;;;;;;805795;176;26453;-80
2024/02/20 10:15:25;;;;;;;33.03;14.57;;;10.80;99.90;;;;;;808311;177;26446;-81
2024/02/20 10:17:57;;;;;;;35.73;16.73;;;10.90;99.90;;;;;;806566;177;26442;-81
2024/02/20 10:20:24;;;;;;;31.13;12.30;;;10.80;99.90;;;;;;807652;178;26444;-80
2024/02/20 10:22:50;;;;;;;30.53;15.60;;;10.70;99.90;;;;;;805939;178;26462;-78
2024/02/20 10:25:17;;;;;;;69.33;30.93;;;10.50;99.90;;;;;;806071;178;26438;-78
2024/02/20 10:27:44;;;;;;;37.73;14.30;;;10.50;99.90;;;;;;803669;178;26414;-79
2024/02/20 10:30:10;;;;;;;32.40;11.57;;;10.60;99.90;;;;;;803789;178;26465;-78
2024/02/20 10:32:37;;;;;;;29.17;10.60;;;10.60;99.90;;;;;;804504;178;26474;-80
2024/02/20 10:35:04;;;;;;;27.23;10.20;;;10.60;99.90;;;;;;807473;178;26438;-80
2024/02/20 10:37:30;;;;;;;42.63;19.90;;;10.80;99.90;;;;;;805549;178;26600;-80
2024/02/20 10:40:03;;;;;;;48.20;21.20;;;10.90;99.90;;;;;;770404;185;26482;-80
2024/02/20 10:42:29;;;;;;;35.40;13.07;;;11.00;99.90;;;;;;772162;184;26519;-79
2024/02/20 10:44:57;;;;;;;97.13;43.50;;;11.00;99.90;;;;;;790398;181;26504;-80
2024/02/20 10:47:23;;;;;;;47.97;24.20;;;10.90;99.90;;;;;;780989;180;26647;-79
2024/02/20 10:49:49;;;;;;;29.30;11.27;;;10.80;99.90;;;;;;806029;177;26429;-80
2024/02/20 10:52:16;;;;;;;46.97;22.63;;;10.90;99.90;;;;;;807154;177;26983;-79
2024/02/20 10:54:42;;;;;;;34.50;13.17;;;11.00;99.90;;;;;;773921;181;26543;-77
2024/02/20 10:57:09;;;;;;;49.33;23.10;;;10.90;99.90;;;;;;784370;181;26513;-78
2024/02/20 10:59:36;;;;;;;78.37;38.50;;;10.90;99.90;;;;;;783073;181;26663;-77
2024/02/20 11:02:02;;;;;;;125.37;56.40;;;10.90;99.90;;;;;;783623;180;26514;-77
2024/02/20 11:04:29;;;;;;;48.63;20.63;;;10.90;99.90;;;;;;788174;180;27118;-78
2024/02/20 11:06:55;;;;;;;61.57;28.73;;;11.00;99.90;;;;;;794019;178;26605;-77
2024/02/20 11:09:25;;;;;;;53.03;24.03;;;11.00;99.90;;;;;;794605;179;27036;-78
2024/02/20 11:11:48;;;;;;;255.93;116.43;;;11.10;99.90;;;;;;794899;178;26466;-77
2024/02/20 11:14:30;;;;;;;276.23;120.57;;;10.90;99.90;;;;;;768111;183;26483;-76
2024/02/20 11:16:56;;;;;;;56.33;23.07;;;10.90;99.90;;;;;;805499;176;26611;-76
2024/02/20 11:19:25;;;;;;;99.13;45.00;;;10.90;99.90;;;;;;806489;176;26489;-77
2024/02/20 11:21:51;;;;;;;72.30;32.43;;;10.90;99.90;;;;;;800120;176;27176;-77
2024/02/20 11:24:18;;;;;;;64.27;30.07;;;11.10;99.90;;;;;;806325;177;26456;-77
2024/02/20 11:26:47;;;;;;;102.83;44.90;;;11.20;99.90;;;;;;805646;177;27009;-76
2024/02/20 11:29:14;;;;;;;190.87;87.97;;;11.40;99.90;;;;;;811024;176;26986;-77
2024/02/20 11:31:38;;;;;;;101.13;44.50;;;11.40;99.90;;;;;;801184;177;26431;-78
2024/02/20 11:34:04;;;;;;;81.50;39.97;;;11.30;99.90;;;;;;798903;177;26510;-77
2024/02/20 11:36:31;;;;;;;34.07;16.40;;;11.40;99.30;;;;;;797539;177;27074;-77
2024/02/20 11:39:02;;;;;;;79.80;36.93;;;11.20;99.60;;;;;;804335;177;26481;-78
2024/02/20 11:41:28;;;;;;;99.47;51.93;;;11.20;99.80;;;;;;801639;177;26650;-78
2024/02/20 11:44:03;;;;;;;93.30;47.93;;;11.40;99.90;;;;;;804807;177;26433;-78
2024/02/20 11:46:28;;;;;;;31.73;11.87;;;11.60;99.40;;;;;;801873;177;26484;-78
2024/02/20 11:48:55;;;;;;;26.23;10.20;;;11.70;99.50;;;;;;804037;177;26448;-74
2024/02/20 11:51:23;;;;;;;37.60;14.83;;;11.60;99.40;;;;;;809968;177;26460;-77
2024/02/20 11:53:48;;;;;;;26.40;10.33;;;11.70;99.90;;;;;;808893;177;26963;-77
2024/02/20 11:56:15;;;;;;;34.67;16.43;;;11.90;99.80;;;;;;810374;177;26463;-77
2024/02/20 11:58:41;;;;;;;35.03;17.93;;;12.00;98.30;;;;;;806195;177;26578;-77
2024/02/20 12:01:08;;;;;;;28.83;12.47;;;12.00;97.20;;;;;;808661;177;26974;-78
2024/02/20 12:03:35;;;;;;;29.03;10.53;;;12.10;98.00;;;;;;806256;177;26459;-78
2024/02/20 12:06:02;;;;;;;25.07;9.50;;;11.90;96.80;;;;;;804773;177;26485;-78
2024/02/20 12:08:40;;;;;;;35.10;15.17;;;12.20;96.80;;;;;;806766;177;26466;-78
2024/02/20 12:11:04;;;;;;;25.87;10.83;;;12.30;96.20;;;;;;800730;177;26432;-78
2024/02/20 12:13:30;;;;;;;76.93;41.23;;;12.40;95.40;;;;;;810048;176;26452;-77
2024/02/20 12:15:57;;;;;;;33.10;14.47;;;12.40;94.00;;;;;;814231;174;26512;-77
2024/02/20 12:18:25;;;;;;;21.30;9.73;;;12.60;93.80;;;;;;808595;175;26428;-77
2024/02/20 12:20:51;;;;;;;25.87;8.37;;;12.50;94.40;;;;;;808922;177;26414;-78
2024/02/20 12:23:19;;;;;;;20.27;7.20;;;12.50;97.10;;;;;;813166;176;26464;-77
2024/02/20 12:25:46;;;;;;;20.13;7.83;;;12.70;94.80;;;;;;810366;176;27682;-76
2024/02/20 12:28:13;;;;;;;65.37;30.57;;;12.80;95.00;;;;;;809255;177;26461;-76
2024/02/20 12:30:39;;;;;;;40.20;18.70;;;12.40;93.40;;;;;;802132;176;26974;-77
2024/02/20 12:33:07;;;;;;;29.80;11.43;;;12.20;96.10;;;;;;805949;177;26498;-77
2024/02/20 12:35:33;;;;;;;27.50;10.13;;;12.30;95.00;;;;;;807555;177;26988;-77
2024/02/20 12:38:00;;;;;;;44.73;18.23;;;12.40;95.30;;;;;;810791;177;26448;-77